Sao Pedro da Aldeia, Brazil
Current Conditions -  °F | °C
As of 7:00 PM on Wednesday 28 Jan 2015 (Local Time) from SBES Reporting Station
Scattered Clouds Scattered Clouds  
Wind Chill: 81°   Ceiling: Unl
Heat Index: 83°   Visibility: 6mi
Dew Point: 68°   Wind: 14mph
Humidity: 65%   Direction: 60°ENE
Pressure: 29.88"   Gusts: NA
Location:  22.83°S, 42.11°W
Report Text: SBES 282100Z 06012KT 9999 FEW030 SCT100 27/20 Q1012
Loading
Personal Weather Stations






























Interactive Weather Map New forecast layout! Learn more

10-Day Weather Forecast

Advertisements
Track Severe Weather on mobile